Details for Wideroe at ENGM




Go Back


Latest METAR
Local Time

ENGM 221020Z 24013G23KT 210V280 CAVOK 13/M00 Q0992 TEMPO 24015G25KT
22/09/2018, 12:47:37

Description
Results
Wideroe Logo
Number of Pilots based at ENGM
0 Pilots Based here
Number of Wideroe Flights Departed from ENGM
0 Flights Departed
Number of Wideroe Flights Arrived at ENGM
1 Flights Arrived
Number of Wideroe Schedules Departing from ENGM
39 Schedules
Number of Wideroe Schedules Arriving at ENGM
45 Schedules
Number of Wideroe Schedules Departing from ENGM availible today
5 Schedules Today
Number of Wideroe Schedules Arriving at ENGM availible today
9 Schedules Today
Average Landing Rate at ENGM
-200 fpm
Wideroe Average Landing Rate at ENGM
-213 fpm
Total Fuel Purchased at ENGM by Wideroe
0.00 kgs / 0.00 lbs

Pilots Based at ENGM


Pilot ID
Pilot Name
Pilot Rank
No. of Flights
No. of Flying Hours
There are no pilots assigned to this hub!   Will you be the first?
Content